createdAt,value
2018-01-10T00:00:04.305Z,93.00
2018-01-10T00:02:32.525Z,93.30
2018-01-10T00:05:00.658Z,93.60
2018-01-10T00:07:29.507Z,93.80
2018-01-10T00:09:57.487Z,93.80
2018-01-10T00:12:25.837Z,93.80
2018-01-10T00:14:54.086Z,93.80
2018-01-10T00:17:22.167Z,93.90
2018-01-10T00:19:50.336Z,93.90
2018-01-10T00:22:18.306Z,93.90
2018-01-10T00:24:48.236Z,93.90
2018-01-10T00:27:16.277Z,93.90
2018-01-10T00:29:44.366Z,94.00
2018-01-10T00:32:12.566Z,94.00
2018-01-10T00:34:40.738Z,94.00
2018-01-10T00:37:08.877Z,94.00
2018-01-10T00:39:37.067Z,94.00
2018-01-10T00:42:05.377Z,94.10
2018-01-10T00:44:33.576Z,94.10
2018-01-10T00:47:01.806Z,93.90
2018-01-10T00:49:29.876Z,93.70
2018-01-10T00:51:58.045Z,93.70
2018-01-10T00:54:25.986Z,93.60
2018-01-10T00:56:56.146Z,93.60
2018-01-10T00:59:24.306Z,93.50
2018-01-10T01:01:52.255Z,93.30
2018-01-10T01:04:22.596Z,93.20
2018-01-10T01:06:50.756Z,93.40
2018-01-10T01:09:18.735Z,93.50
2018-01-10T01:11:46.935Z,93.70
2018-01-10T01:14:15.047Z,93.30
2018-01-10T01:16:43.286Z,92.80
2018-01-10T01:19:11.556Z,91.00
2018-01-10T01:21:40.576Z,91.70
2018-01-10T01:24:10.016Z,91.70
2018-01-10T01:26:38.295Z,92.90
2018-01-10T01:29:06.427Z,93.40
2018-01-10T01:31:34.497Z,93.60
2018-01-10T01:34:02.716Z,93.70
2018-01-10T01:36:30.745Z,93.30
2018-01-10T01:38:58.956Z,93.10
2018-01-10T01:41:28.066Z,93.40
2018-01-10T01:43:58.885Z,94.00
2018-01-10T01:46:27.066Z,94.00
2018-01-10T01:48:55.187Z,94.10
2018-01-10T01:51:23.177Z,94.10
2018-01-10T01:53:51.217Z,94.10
2018-01-10T01:56:20.496Z,94.40
2018-01-10T01:58:48.626Z,94.20
2018-01-10T02:01:17.727Z,94.20
2018-01-10T02:03:45.905Z,94.20
2018-01-10T02:06:14.710Z,94.20
2018-01-10T02:08:42.776Z,94.20
2018-01-10T02:11:12.687Z,94.10
2018-01-10T02:13:40.756Z,94.10
2018-01-10T02:16:10.826Z,94.00
2018-01-10T02:18:38.976Z,92.80
2018-01-10T02:23:39.087Z,92.70
2018-01-10T02:26:07.567Z,93.30
2018-01-10T02:28:35.676Z,93.10
2018-01-10T02:31:03.876Z,93.50
2018-01-10T02:33:33.406Z,93.20
2018-01-10T02:36:01.507Z,92.80
2018-01-10T02:38:30.266Z,93.50
2018-01-10T02:40:58.306Z,93.50
2018-01-10T02:43:26.336Z,93.40
2018-01-10T02:45:54.547Z,93.50
2018-01-10T02:48:23.327Z,93.40
2018-01-10T02:50:53.336Z,93.10
2018-01-10T02:53:21.386Z,92.90
2018-01-10T02:55:49.716Z,92.50
2018-01-10T02:58:17.757Z,92.30
2018-01-10T03:00:45.707Z,93.10
2018-01-10T03:03:13.987Z,93.50
2018-01-10T03:05:42.068Z,93.70
2018-01-10T03:08:10.156Z,93.80
2018-01-10T03:10:38.358Z,93.80
2018-01-10T03:13:06.486Z,93.80
2018-01-10T03:15:34.706Z,93.80
2018-01-10T03:18:02.806Z,93.80
2018-01-10T03:20:30.787Z,93.90
2018-01-10T03:22:58.916Z,94.00
2018-01-10T03:25:27.086Z,94.00
2018-01-10T03:27:55.206Z,94.10
2018-01-10T03:30:23.307Z,94.10
2018-01-10T03:32:51.477Z,94.00
2018-01-10T03:35:20.346Z,94.00
2018-01-10T03:37:49.326Z,94.00
2018-01-10T03:40:19.652Z,94.10
2018-01-10T03:42:47.948Z,94.00
2018-01-10T03:45:16.046Z,93.90
2018-01-10T03:47:44.248Z,93.90
2018-01-10T03:50:12.176Z,93.80
2018-01-10T03:52:40.286Z,93.80
2018-01-10T03:55:09.217Z,93.70
2018-01-10T03:57:38.507Z,93.70
2018-01-10T04:00:06.557Z,93.60
2018-01-10T04:02:35.517Z,93.40
2018-01-10T04:05:03.617Z,93.30
2018-01-10T04:07:32.416Z,93.50
2018-01-10T04:10:00.456Z,93.30
2018-01-10T04:12:28.436Z,93.30
2018-01-10T04:14:56.506Z,93.40
2018-01-10T04:17:24.626Z,93.40
2018-01-10T04:19:53.897Z,93.50
2018-01-10T04:22:21.897Z,93.70
2018-01-10T04:24:50.017Z,93.70
2018-01-10T04:27:19.466Z,93.70
2018-01-10T04:29:48.806Z,93.80
2018-01-10T04:32:17.027Z,93.70
2018-01-10T04:34:45.086Z,93.80
2018-01-10T04:37:13.187Z,93.80
2018-01-10T04:39:41.246Z,93.90
2018-01-10T04:42:09.346Z,93.90
2018-01-10T04:44:37.438Z,93.90
2018-01-10T04:47:05.576Z,93.90
2018-01-10T04:49:33.586Z,93.90
2018-01-10T04:52:01.560Z,93.90
2018-01-10T04:54:29.757Z,93.90
2018-01-10T04:56:59.097Z,93.90
2018-01-10T04:59:27.157Z,93.90
2018-01-10T05:01:55.287Z,93.90
2018-01-10T05:04:23.447Z,93.90
2018-01-10T05:06:51.696Z,93.90
2018-01-10T05:09:19.856Z,93.90
2018-01-10T05:11:47.966Z,94.00
2018-01-10T05:14:16.145Z,94.00
2018-01-10T05:16:44.986Z,93.90
2018-01-10T05:19:13.096Z,93.90
2018-01-10T05:21:41.205Z,93.90
2018-01-10T05:24:09.286Z,93.90
2018-01-10T05:26:37.406Z,93.80
2018-01-10T05:29:05.376Z,93.70
2018-01-10T05:31:33.546Z,93.60
2018-01-10T05:34:01.796Z,93.50
2018-01-10T05:36:31.745Z,93.40
2018-01-10T05:38:59.937Z,93.30
2018-01-10T05:41:27.946Z,93.20
2018-01-10T05:43:56.132Z,93.10
2018-01-10T05:48:59.247Z,93.00
2018-01-10T05:51:27.415Z,93.00
2018-01-10T05:53:55.426Z,92.80
2018-01-10T05:56:23.376Z,92.70
2018-01-10T05:58:51.456Z,92.80
2018-01-10T06:01:19.598Z,92.80
2018-01-10T06:03:47.706Z,93.00
2018-01-10T06:06:15.726Z,93.10
2018-01-10T06:08:43.756Z,93.20
2018-01-10T06:11:11.767Z,93.20
2018-01-10T06:13:39.927Z,93.20
2018-01-10T06:16:07.835Z,93.20
2018-01-10T06:18:35.946Z,93.20
2018-01-10T06:21:03.886Z,93.30
2018-01-10T06:23:31.966Z,93.40
2018-01-10T06:26:00.126Z,93.50
2018-01-10T06:28:28.305Z,93.50
2018-01-10T06:30:56.437Z,93.60
2018-01-10T06:33:24.507Z,93.50
2018-01-10T06:35:52.505Z,93.50
2018-01-10T06:38:20.697Z,93.50
2018-01-10T06:40:48.584Z,93.40
2018-01-10T06:43:16.686Z,93.60
2018-01-10T06:45:44.837Z,93.30
2018-01-10T06:48:13.036Z,93.20
2018-01-10T06:50:41.906Z,93.00
2018-01-10T06:53:11.135Z,93.00
2018-01-10T06:55:39.305Z,93.00
2018-01-10T06:58:07.346Z,92.90
2018-01-10T07:00:38.378Z,92.80
2018-01-10T07:03:06.497Z,92.80
2018-01-10T07:05:34.676Z,92.90
2018-01-10T07:08:03.945Z,92.90
2018-01-10T07:10:32.649Z,93.00
2018-01-10T07:13:01.108Z,92.90
2018-01-10T07:15:29.600Z,92.80
2018-01-10T07:17:58.736Z,93.00
2018-01-10T07:20:27.892Z,93.00
2018-01-10T07:22:56.525Z,93.00
2018-01-10T07:25:27.959Z,93.00
2018-01-10T07:33:46.166Z,93.20
2018-01-10T07:36:32.489Z,93.20
2018-01-10T07:53:35.549Z,92.90
2018-01-10T07:56:19.916Z,92.80
2018-01-10T07:59:11.906Z,92.70
2018-01-10T08:01:57.586Z,92.70
2018-01-10T08:04:43.904Z,92.60
2018-01-10T08:07:19.253Z,92.90
2018-01-10T08:10:10.946Z,92.60
2018-01-10T08:15:52.043Z,92.50
2018-01-10T08:21:25.148Z,92.50
2018-01-10T08:24:14.615Z,92.40
2018-01-10T08:26:59.809Z,92.40
2018-01-10T08:29:40.913Z,92.60
2018-01-10T08:32:31.730Z,92.60
2018-01-10T08:46:36.245Z,92.40
2018-01-10T08:49:25.946Z,92.20
2018-01-10T08:52:09.896Z,92.20
2018-01-10T08:58:03.695Z,92.10
2018-01-10T09:03:51.282Z,92.00
2018-01-10T09:06:34.895Z,91.90
2018-01-10T09:09:22.159Z,91.90
2018-01-10T09:15:04.025Z,91.60
2018-01-10T09:17:51.384Z,91.70
2018-01-10T09:20:54.315Z,91.70
2018-01-10T09:26:39.925Z,91.90
2018-01-10T09:29:28.795Z,91.70
2018-01-10T09:32:21.254Z,91.60
2018-01-10T09:35:03.945Z,91.60
2018-01-10T09:43:51.163Z,91.80
2018-01-10T09:46:37.544Z,91.70
2018-01-10T09:49:34.474Z,91.70
2018-01-10T09:52:23.674Z,91.60
2018-01-10T09:55:06.305Z,91.30
2018-01-10T10:06:31.666Z,91.90
2018-01-10T10:09:17.374Z,91.10
2018-01-10T10:17:52.995Z,91.60
2018-01-10T10:20:46.814Z,88.40
2018-01-10T10:26:27.695Z,89.10
2018-01-10T10:34:51.196Z,92.60
2018-01-10T10:43:34.455Z,91.80
2018-01-10T10:46:21.665Z,91.90
2018-01-10T10:57:51.576Z,88.50
2018-01-10T11:03:49.024Z,90.10
2018-01-10T11:09:21.124Z,88.20
2018-01-10T11:15:10.064Z,90.50
2018-01-10T11:18:07.414Z,89.70
2018-01-10T11:23:41.914Z,88.70
2018-01-10T11:29:25.563Z,86.90
2018-01-10T11:32:11.434Z,89.90
2018-01-10T11:34:54.734Z,90.40
2018-01-10T11:40:33.444Z,90.30
2018-01-10T11:43:22.367Z,90.10
2018-01-10T11:46:09.574Z,89.50
2018-01-10T11:48:51.534Z,90.40
2018-01-10T11:51:37.445Z,90.30
2018-01-10T11:54:39.394Z,90.10
2018-01-10T11:57:24.355Z,90.00
2018-01-10T12:03:10.334Z,89.00
2018-01-10T12:06:06.044Z,89.00
2018-01-10T12:09:02.504Z,89.00
2018-01-10T12:11:54.695Z,88.70
2018-01-10T12:14:48.195Z,88.50
2018-01-10T12:17:34.313Z,86.00
2018-01-10T12:20:22.223Z,86.30
2018-01-10T12:29:01.287Z,87.10
2018-01-10T12:31:48.628Z,86.70
2018-01-10T12:34:38.368Z,87.20
2018-01-10T12:40:30.208Z,86.60
2018-01-10T12:43:14.770Z,87.50
2018-01-10T12:51:53.881Z,87.60
2018-01-10T12:54:42.461Z,87.80
2018-01-10T12:57:34.561Z,89.40
2018-01-10T13:03:12.307Z,89.00
2018-01-10T13:05:58.506Z,89.00
2018-01-10T13:08:50.708Z,88.80
2018-01-10T13:14:23.883Z,89.20
2018-01-10T13:19:55.666Z,89.70
2018-01-10T13:23:03.907Z,90.00
2018-01-10T13:25:52.214Z,90.00
2018-01-10T13:31:45.896Z,89.80
2018-01-10T13:34:37.412Z,89.40
2018-01-10T13:40:18.824Z,90.00
2018-01-10T13:43:06.252Z,90.10
2018-01-10T13:51:36.183Z,88.70
2018-01-10T13:57:15.489Z,89.00
2018-01-10T14:03:00.130Z,89.20
2018-01-10T14:05:49.043Z,89.30
2018-01-10T14:14:07.662Z,89.10
2018-01-10T14:17:01.184Z,89.10
2018-01-10T14:19:57.982Z,89.10
2018-01-10T14:22:44.884Z,89.20
2018-01-10T14:25:28.822Z,89.20
